Time;durP1;ratioP1;P1;durP2;ratioP2;P2;SDS_P1;SDS_P2;PMS_P1;PMS_P2;Temp;Humidity;BMP_temperature;BMP_pressure;BME280_temperature;BME280_humidity;BME280_pressure;Samples;Min_cycle;Max_cycle;Signal;HPM_P1;HPM_P2
2023/05/21 00:02:03;;;;;;;;;;;15.60;65.60;;;;;;5093259;28;19912;-33
2023/05/21 00:04:30;;;;;;;;;;;15.60;66.00;;;;;;5093129;28;20363;-31
2023/05/21 00:06:57;;;;;;;;;;;15.60;66.00;;;;;;5093212;28;19977;-37
2023/05/21 00:09:23;;;;;;;;;;;15.60;65.90;;;;;;5093019;28;19959;-34
2023/05/21 00:11:48;;;;;;;;;;;15.60;65.80;;;;;;5093128;28;19936;-35
2023/05/21 00:14:14;;;;;;;;;;;15.60;66.20;;;;;;5093094;28;19915;-35
2023/05/21 00:16:39;;;;;;;;;;;15.60;66.50;;;;;;5092830;28;19911;-33
2023/05/21 00:19:05;;;;;;;;;;;15.60;66.00;;;;;;5092844;28;19908;-31
2023/05/21 00:21:30;;;;;;;;;;;15.70;66.30;;;;;;5092828;28;19920;-29
2023/05/21 00:23:56;;;;;;;;;;;15.60;66.20;;;;;;5092745;28;19908;-32
2023/05/21 00:26:23;;;;;;;;;;;15.60;66.40;;;;;;5092782;28;19908;-30
2023/05/21 00:28:48;;;;;;;;;;;15.60;66.40;;;;;;5092755;28;20237;-33
2023/05/21 00:31:14;;;;;;;;;;;15.60;66.70;;;;;;5092626;28;19915;-29
2023/05/21 00:33:40;;;;;;;;;;;15.60;66.60;;;;;;5074497;28;19999;-30
2023/05/21 00:36:06;;;;;;;;;;;15.60;66.40;;;;;;5092759;28;19946;-32
2023/05/21 00:38:31;;;;;;;;;;;15.60;67.10;;;;;;5092566;28;19948;-35
2023/05/21 00:41:03;;;;;;;;;;;15.60;67.30;;;;;;5092549;28;19909;-31
2023/05/21 00:43:28;;;;;;;;;;;15.60;66.60;;;;;;5092518;28;20376;-39
2023/05/21 00:45:55;;;;;;;;;;;15.60;67.30;;;;;;5092423;28;19958;-34
2023/05/21 00:48:21;;;;;;;;;;;15.60;67.60;;;;;;5092405;28;19915;-32
2023/05/21 00:50:48;;;;;;;;;;;15.60;67.20;;;;;;5092327;28;19908;-35
2023/05/21 00:53:14;;;;;;;;;;;15.60;67.00;;;;;;5092369;28;19908;-35
2023/05/21 00:55:39;;;;;;;;;;;15.60;67.10;;;;;;5092275;28;19919;-34
2023/05/21 00:58:05;;;;;;;;;;;15.60;67.60;;;;;;5092293;28;19908;-31
2023/05/21 01:00:32;;;;;;;;;;;15.60;67.30;;;;;;5092299;28;19938;-31
2023/05/21 01:02:57;;;;;;;;;;;15.60;67.40;;;;;;5092008;28;19978;-34
2023/05/21 01:05:23;;;;;;;;;;;15.60;67.60;;;;;;5092347;28;20445;-31
2023/05/21 01:07:49;;;;;;;;;;;15.50;67.80;;;;;;5091876;28;20380;-30
2023/05/21 01:10:14;;;;;;;;;;;15.50;67.70;;;;;;5091731;28;19909;-39
2023/05/21 01:12:41;;;;;;;;;;;15.50;68.10;;;;;;5092046;28;20021;-32
2023/05/21 01:15:07;;;;;;;;;;;15.50;68.30;;;;;;5073760;28;19912;-30
2023/05/21 01:17:34;;;;;;;;;;;15.50;68.20;;;;;;5092039;28;19961;-32
2023/05/21 01:20:00;;;;;;;;;;;15.50;68.40;;;;;;5092053;28;19919;-34
2023/05/21 01:22:27;;;;;;;;;;;15.50;68.20;;;;;;5091657;28;20019;-34
2023/05/21 01:24:54;;;;;;;;;;;15.50;68.70;;;;;;5091797;28;19912;-35
2023/05/21 01:27:20;;;;;;;;;;;15.50;68.90;;;;;;5073611;28;20002;-29
2023/05/21 01:29:45;;;;;;;;;;;15.40;68.80;;;;;;5091829;28;20268;-31
2023/05/21 01:32:30;;;;;;;;;;;15.40;68.80;;;;;;5091746;28;19908;-30
2023/05/21 01:35:08;;;;;;;;;;;15.40;68.60;;;;;;5091690;28;20003;-31
2023/05/21 01:37:36;;;;;;;;;;;15.40;68.70;;;;;;5091737;28;19965;-30
2023/05/21 01:40:10;;;;;;;;;;;15.40;68.70;;;;;;5091795;28;19990;-30
2023/05/21 01:42:37;;;;;;;;;;;15.40;69.00;;;;;;5091515;28;19912;-30
2023/05/21 01:45:05;;;;;;;;;;;15.40;69.10;;;;;;5091766;28;19939;-33
2023/05/21 01:47:31;;;;;;;;;;;15.40;69.20;;;;;;5091600;28;19908;-35
2023/05/21 01:49:58;;;;;;;;;;;15.30;69.20;;;;;;5091574;28;19908;-32
2023/05/21 01:52:24;;;;;;;;;;;15.40;69.70;;;;;;5091759;28;19935;-30
2023/05/21 01:54:50;;;;;;;;;;;15.40;69.80;;;;;;5091517;28;20363;-29
2023/05/21 01:57:16;;;;;;;;;;;15.30;69.80;;;;;;5091605;28;19916;-30
2023/05/21 01:59:43;;;;;;;;;;;15.30;69.50;;;;;;5091660;28;19909;-34
2023/05/21 02:02:08;;;;;;;;;;;15.30;69.90;;;;;;5091448;28;19981;-34
2023/05/21 02:04:34;;;;;;;;;;;15.30;69.50;;;;;;5091475;28;19908;-35
2023/05/21 02:06:59;;;;;;;;;;;15.30;69.80;;;;;;5091525;28;20042;-37
2023/05/21 02:09:25;;;;;;;;;;;15.30;70.00;;;;;;5091323;28;19909;-34
2023/05/21 02:11:50;;;;;;;;;;;15.20;70.00;;;;;;5091391;28;19977;-34
2023/05/21 02:14:15;;;;;;;;;;;15.20;70.20;;;;;;5091578;28;19908;-31
2023/05/21 02:16:41;;;;;;;;;;;15.20;70.20;;;;;;5091339;28;19977;-33
2023/05/21 02:19:09;;;;;;;;;;;15.10;70.10;;;;;;5091345;28;19908;-32
2023/05/21 02:21:34;;;;;;;;;;;15.10;70.20;;;;;;5093583;28;19920;-30
2023/05/21 02:24:00;;;;;;;;;;;15.10;70.30;;;;;;5095048;28;20440;-31
2023/05/21 02:26:26;;;;;;;;;;;15.10;70.40;;;;;;5095147;28;19995;-30
2023/05/21 02:28:52;;;;;;;;;;;15.10;70.40;;;;;;5094978;28;19957;-33
2023/05/21 02:31:18;;;;;;;;;;;15.10;70.60;;;;;;5094894;28;19935;-36
2023/05/21 02:33:43;;;;;;;;;;;15.10;70.50;;;;;;5076789;28;19908;-31
2023/05/21 02:36:11;;;;;;;;;;;15.10;70.30;;;;;;5094781;28;20360;-31
2023/05/21 02:38:39;;;;;;;;;;;15.10;70.50;;;;;;5094791;28;19908;-33
2023/05/21 02:41:04;;;;;;;;;;;15.10;70.30;;;;;;5094717;28;19908;-34
2023/05/21 02:43:30;;;;;;;;;;;15.10;70.50;;;;;;5076422;28;19912;-29
2023/05/21 02:45:55;;;;;;;;;;;15.10;70.80;;;;;;5094801;28;20368;-33
2023/05/21 02:48:21;;;;;;;;;;;15.10;71.10;;;;;;5094535;28;19908;-30
2023/05/21 02:50:46;;;;;;;;;;;15.00;71.00;;;;;;5094656;28;19955;-32
2023/05/21 02:53:12;;;;;;;;;;;15.00;70.80;;;;;;5094544;28;19908;-32
2023/05/21 02:55:37;;;;;;;;;;;15.00;71.20;;;;;;5094720;28;20322;-31
2023/05/21 02:58:03;;;;;;;;;;;14.90;71.70;;;;;;5094580;28;20425;-32
2023/05/21 03:00:29;;;;;;;;;;;14.90;71.70;;;;;;5094350;28;19930;-35
2023/05/21 03:02:54;;;;;;;;;;;14.90;71.70;;;;;;5094467;28;19991;-31
2023/05/21 03:05:20;;;;;;;;;;;14.90;71.60;;;;;;5094242;28;19908;-33
2023/05/21 03:07:45;;;;;;;;;;;14.90;72.10;;;;;;5076063;28;20372;-32
2023/05/21 03:10:11;;;;;;;;;;;14.90;71.90;;;;;;5094224;28;19950;-37
2023/05/21 03:12:36;;;;;;;;;;;14.90;72.00;;;;;;5094120;28;19915;-35
2023/05/21 03:15:02;;;;;;;;;;;14.90;72.10;;;;;;5094306;28;19948;-34
2023/05/21 03:17:28;;;;;;;;;;;14.90;71.80;;;;;;5094721;28;20117;-31
2023/05/21 03:19:53;;;;;;;;;;;14.90;72.20;;;;;;5094135;28;19908;-41
2023/05/21 03:22:19;;;;;;;;;;;14.90;72.00;;;;;;5075934;28;20009;-33
2023/05/21 03:24:45;;;;;;;;;;;14.90;71.90;;;;;;5093986;28;20001;-32
2023/05/21 03:27:10;;;;;;;;;;;14.90;72.50;;;;;;5093977;28;20287;-31
2023/05/21 03:29:38;;;;;;;;;;;14.90;72.20;;;;;;5093879;28;19908;-35
2023/05/21 03:32:05;;;;;;;;;;;14.90;72.50;;;;;;5093474;28;19930;-32
2023/05/21 03:34:33;;;;;;;;;;;14.90;72.30;;;;;;5093870;28;19908;-31
2023/05/21 03:36:58;;;;;;;;;;;14.90;72.30;;;;;;5093943;28;20383;-34
2023/05/21 03:39:24;;;;;;;;;;;14.90;72.40;;;;;;5094051;28;19950;-32
2023/05/21 03:41:49;;;;;;;;;;;14.90;72.60;;;;;;5093619;28;19919;-31
2023/05/21 03:44:15;;;;;;;;;;;14.90;72.90;;;;;;5093829;28;19908;-32
2023/05/21 03:46:41;;;;;;;;;;;14.90;72.50;;;;;;5093587;28;19915;-33
2023/05/21 03:49:06;;;;;;;;;;;14.90;72.90;;;;;;5093649;28;19908;-32
2023/05/21 03:51:32;;;;;;;;;;;14.90;73.00;;;;;;5093629;28;19912;-30
2023/05/21 03:53:58;;;;;;;;;;;14.90;72.90;;;;;;5075258;28;19908;-29
2023/05/21 03:56:23;;;;;;;;;;;14.90;73.00;;;;;;5093403;28;19931;-32
2023/05/21 03:58:49;;;;;;;;;;;14.90;73.70;;;;;;5093720;28;19966;-31
2023/05/21 04:01:14;;;;;;;;;;;14.90;73.30;;;;;;5093280;28;19915;-31
2023/05/21 04:03:40;;;;;;;;;;;14.90;73.50;;;;;;5093490;28;19919;-30
2023/05/21 04:06:06;;;;;;;;;;;14.90;73.40;;;;;;5075049;28;20140;-34
2023/05/21 04:08:31;;;;;;;;;;;14.90;73.20;;;;;;5093115;28;19908;-33
2023/05/21 04:10:56;;;;;;;;;;;14.90;73.80;;;;;;5093056;28;19915;-33
2023/05/21 04:13:22;;;;;;;;;;;14.90;73.60;;;;;;5093199;28;19908;-30
2023/05/21 04:15:47;;;;;;;;;;;14.90;73.30;;;;;;5093071;28;20335;-33
2023/05/21 04:18:15;;;;;;;;;;;14.90;73.50;;;;;;5092888;28;20371;-30
2023/05/21 04:20:41;;;;;;;;;;;15.00;73.30;;;;;;5074438;28;20003;-30
2023/05/21 04:23:07;;;;;;;;;;;15.00;73.50;;;;;;5092851;28;19919;-33
2023/05/21 04:25:32;;;;;;;;;;;15.00;73.50;;;;;;5092856;28;19909;-32
2023/05/21 04:27:58;;;;;;;;;;;15.00;73.50;;;;;;5074523;28;20276;-37
2023/05/21 04:30:24;;;;;;;;;;;15.00;73.90;;;;;;5074556;28;20250;-34
2023/05/21 04:32:51;;;;;;;;;;;15.00;74.10;;;;;;5092545;28;19955;-37
2023/05/21 04:35:17;;;;;;;;;;;15.00;73.90;;;;;;5092490;28;19946;-30
2023/05/21 04:37:44;;;;;;;;;;;15.00;73.70;;;;;;5092551;28;19909;-29
2023/05/21 04:40:11;;;;;;;;;;;15.10;73.70;;;;;;5092309;28;20045;-33
2023/05/21 04:42:37;;;;;;;;;;;15.10;74.30;;;;;;5092127;28;19919;-30
2023/05/21 04:45:03;;;;;;;;;;;15.10;74.30;;;;;;5091985;28;19908;-34
2023/05/21 04:47:29;;;;;;;;;;;15.00;74.20;;;;;;5092390;28;19915;-42
2023/05/21 04:49:55;;;;;;;;;;;15.00;74.00;;;;;;5093092;28;20429;-31
2023/05/21 04:52:20;;;;;;;;;;;15.00;74.20;;;;;;5092070;28;20395;-30
2023/05/21 04:54:46;;;;;;;;;;;15.10;74.50;;;;;;5092277;28;19951;-34
2023/05/21 04:57:12;;;;;;;;;;;15.00;74.40;;;;;;5092066;28;19915;-33
2023/05/21 04:59:38;;;;;;;;;;;15.00;74.90;;;;;;5092097;28;19912;-30
2023/05/21 05:02:03;;;;;;;;;;;15.00;74.80;;;;;;5092308;28;19912;-33
2023/05/21 05:04:30;;;;;;;;;;;15.00;75.00;;;;;;5091972;28;19930;-29
2023/05/21 05:06:55;;;;;;;;;;;15.00;75.60;;;;;;5092132;28;20192;-35
2023/05/21 05:09:23;;;;;;;;;;;15.00;75.30;;;;;;5092088;28;19915;-32
2023/05/21 05:11:49;;;;;;;;;;;15.00;75.10;;;;;;5092108;28;20063;-35
2023/05/21 05:14:15;;;;;;;;;;;15.00;75.40;;;;;;5092061;28;19908;-36
2023/05/21 05:16:41;;;;;;;;;;;15.00;75.20;;;;;;5091898;28;19915;-33
2023/05/21 05:19:07;;;;;;;;;;;15.00;75.20;;;;;;5091959;28;20368;-31
2023/05/21 05:21:33;;;;;;;;;;;15.10;76.10;;;;;;5091682;28;19927;-33
2023/05/21 05:23:59;;;;;;;;;;;15.00;75.50;;;;;;5091916;28;19912;-35
2023/05/21 05:26:25;;;;;;;;;;;15.10;75.60;;;;;;5092161;28;19935;-41
2023/05/21 05:28:50;;;;;;;;;;;15.10;75.50;;;;;;5091923;28;20407;-32
2023/05/21 05:31:15;;;;;;;;;;;15.10;75.30;;;;;;5091824;28;19912;-33
2023/05/21 05:33:41;;;;;;;;;;;15.10;75.40;;;;;;5091872;28;19914;-29
2023/05/21 05:36:07;;;;;;;;;;;15.20;76.00;;;;;;5091716;28;20211;-34
2023/05/21 05:38:33;;;;;;;;;;;15.20;75.20;;;;;;5091711;28;19957;-31
2023/05/21 05:40:58;;;;;;;;;;;15.20;75.20;;;;;;5091723;28;19908;-35
2023/05/21 05:43:24;;;;;;;;;;;15.30;75.30;;;;;;5091663;28;19916;-34
2023/05/21 05:45:49;;;;;;;;;;;15.30;75.40;;;;;;5091627;28;19915;-33
2023/05/21 05:48:15;;;;;;;;;;;15.30;75.20;;;;;;5073646;28;19908;-37
2023/05/21 05:50:41;;;;;;;;;;;15.40;75.10;;;;;;5091570;28;19908;-37
2023/05/21 05:53:07;;;;;;;;;;;15.40;75.10;;;;;;5091666;28;20334;-32
2023/05/21 05:55:32;;;;;;;;;;;15.40;75.00;;;;;;5094355;28;19915;-33
2023/05/21 05:57:58;;;;;;;;;;;15.50;75.30;;;;;;5095894;28;19915;-33
2023/05/21 06:00:23;;;;;;;;;;;15.50;74.90;;;;;;5095583;28;19908;-34
2023/05/21 06:02:49;;;;;;;;;;;15.50;75.30;;;;;;5095512;28;20345;-30
2023/05/21 06:05:14;;;;;;;;;;;15.50;75.00;;;;;;5095589;28;20321;-32
2023/05/21 06:07:40;;;;;;;;;;;15.50;75.40;;;;;;5095324;28;19908;-35
2023/05/21 06:10:06;;;;;;;;;;;15.50;75.40;;;;;;5095433;28;19943;-32
2023/05/21 06:12:31;;;;;;;;;;;15.60;74.90;;;;;;5095562;28;19961;-33
2023/05/21 06:14:57;;;;;;;;;;;15.60;75.10;;;;;;5095321;28;19908;-33
2023/05/21 06:17:22;;;;;;;;;;;15.60;74.90;;;;;;5095244;28;19909;-31
2023/05/21 06:19:48;;;;;;;;;;;15.70;74.90;;;;;;5095372;28;20284;-33
2023/05/21 06:22:13;;;;;;;;;;;15.70;75.10;;;;;;5094985;28;19920;-32
2023/05/21 06:24:39;;;;;;;;;;;15.70;74.90;;;;;;5095501;28;20334;-36
2023/05/21 06:27:04;;;;;;;;;;;15.70;74.90;;;;;;5095318;28;19973;-34
2023/05/21 06:29:30;;;;;;;;;;;15.80;75.00;;;;;;5094974;28;19915;-35
2023/05/21 06:31:55;;;;;;;;;;;15.90;75.00;;;;;;5095083;28;19908;-30
2023/05/21 06:34:21;;;;;;;;;;;15.90;74.80;;;;;;5094980;28;20276;-36
2023/05/21 06:36:47;;;;;;;;;;;16.00;74.60;;;;;;5095059;28;19943;-33
2023/05/21 06:39:12;;;;;;;;;;;16.10;75.00;;;;;;5095042;28;20327;-31
2023/05/21 06:41:38;;;;;;;;;;;16.20;74.20;;;;;;5095533;28;19908;-33
2023/05/21 06:44:04;;;;;;;;;;;16.30;74.20;;;;;;5095005;28;19961;-34
2023/05/21 06:46:29;;;;;;;;;;;16.40;74.20;;;;;;5095023;28;20264;-36
2023/05/21 06:48:55;;;;;;;;;;;16.40;73.80;;;;;;5094862;28;19908;-38
2023/05/21 06:51:20;;;;;;;;;;;16.50;73.70;;;;;;5094774;28;19908;-33
2023/05/21 06:53:46;;;;;;;;;;;16.60;73.70;;;;;;5094685;28;19998;-35
2023/05/21 06:56:11;;;;;;;;;;;16.60;73.50;;;;;;5094752;28;19912;-35
2023/05/21 06:58:37;;;;;;;;;;;16.70;73.50;;;;;;5094611;28;19912;-30
2023/05/21 07:01:02;;;;;;;;;;;16.80;73.30;;;;;;5094546;28;20384;-30
2023/05/21 07:03:28;;;;;;;;;;;16.90;73.20;;;;;;5094431;28;19963;-35
2023/05/21 07:05:53;;;;;;;;;;;16.90;72.90;;;;;;5093855;28;19915;-35
2023/05/21 07:08:19;;;;;;;;;;;17.00;73.00;;;;;;5094278;28;19912;-34
2023/05/21 07:10:45;;;;;;;;;;;17.10;73.40;;;;;;5094449;28;19908;-34
2023/05/21 07:13:11;;;;;;;;;;;17.20;72.40;;;;;;5094303;28;19908;-38
2023/05/21 07:15:36;;;;;;;;;;;17.40;72.30;;;;;;5094573;28;19908;-32
2023/05/21 07:18:02;;;;;;;;;;;17.50;72.00;;;;;;5094306;28;19908;-34
2023/05/21 07:20:27;;;;;;;;;;;17.60;71.70;;;;;;5093940;28;19916;-33
2023/05/21 07:22:53;;;;;;;;;;;17.70;71.60;;;;;;5094117;28;19916;-34
2023/05/21 07:25:19;;;;;;;;;;;17.80;71.40;;;;;;5093997;28;19913;-35
2023/05/21 07:27:44;;;;;;;;;;;17.80;71.10;;;;;;5094783;28;19904;-29
2023/05/21 07:30:10;;;;;;;;;;;17.90;71.10;;;;;;5094035;28;19916;-33
2023/05/21 07:32:35;;;;;;;;;;;17.90;70.80;;;;;;5094096;28;19908;-34
2023/05/21 07:35:01;;;;;;;;;;;18.00;70.70;;;;;;5093852;28;19908;-35
2023/05/21 07:37:27;;;;;;;;;;;18.00;70.30;;;;;;5093946;28;19951;-36
2023/05/21 07:39:57;;;;;;;;;;;18.00;70.30;;;;;;5093830;28;19958;-31
2023/05/21 07:42:22;;;;;;;;;;;18.00;70.20;;;;;;5093971;28;20252;-40
2023/05/21 07:44:47;;;;;;;;;;;18.00;70.30;;;;;;5093859;28;19908;-30
2023/05/21 07:47:13;;;;;;;;;;;18.00;70.30;;;;;;5093653;28;19922;-32
2023/05/21 07:49:38;;;;;;;;;;;18.10;70.20;;;;;;5093694;28;19919;-32
2023/05/21 07:52:04;;;;;;;;;;;18.10;70.10;;;;;;5093586;28;20314;-40
2023/05/21 07:54:30;;;;;;;;;;;18.10;69.90;;;;;;5093617;28;19931;-29
2023/05/21 07:56:55;;;;;;;;;;;18.10;69.80;;;;;;5093687;28;20367;-32
2023/05/21 07:59:21;;;;;;;;;;;18.20;69.90;;;;;;5093545;28;19955;-34
2023/05/21 08:01:46;;;;;;;;;;;18.20;69.80;;;;;;5093252;28;19919;-30
2023/05/21 08:04:12;;;;;;;;;;;18.30;69.80;;;;;;5092957;28;19914;-34
2023/05/21 08:06:37;;;;;;;;;;;18.40;69.60;;;;;;5092391;28;20368;-34
2023/05/21 08:09:03;;;;;;;;;;;18.40;69.50;;;;;;5092928;28;19908;-35
2023/05/21 08:11:29;;;;;;;;;;;18.50;69.40;;;;;;5093179;28;19914;-35
2023/05/21 08:13:55;;;;;;;;;;;18.50;69.20;;;;;;5093465;28;19912;-37
2023/05/21 08:16:22;;;;;;;;;;;18.60;69.10;;;;;;5093045;28;19961;-36
2023/05/21 08:18:48;;;;;;;;;;;18.70;69.00;;;;;;5093226;28;19958;-36
2023/05/21 08:21:13;;;;;;;;;;;18.80;68.90;;;;;;5092790;28;20376;-33
2023/05/21 08:23:38;;;;;;;;;;;18.80;68.60;;;;;;5092948;28;19916;-33
2023/05/21 08:26:05;;;;;;;;;;;18.90;68.50;;;;;;5093000;28;20007;-36
2023/05/21 08:28:31;;;;;;;;;;;18.90;68.20;;;;;;5092853;28;20003;-30
2023/05/21 08:30:56;;;;;;;;;;;18.90;68.30;;;;;;5092863;28;20002;-36
2023/05/21 08:33:22;;;;;;;;;;;19.00;68.30;;;;;;5092515;28;20427;-34
2023/05/21 08:35:47;;;;;;;;;;;19.00;67.80;;;;;;5092876;28;20283;-40
2023/05/21 08:38:15;;;;;;;;;;;19.10;67.90;;;;;;5093189;28;20280;-32
2023/05/21 08:40:41;;;;;;;;;;;19.20;67.90;;;;;;5074265;28;19961;-32
2023/05/21 08:43:11;;;;;;;;;;;19.30;67.60;;;;;;5092517;28;19912;-34
2023/05/21 08:45:40;;;;;;;;;;;19.30;67.40;;;;;;5092590;28;19909;-39
2023/05/21 08:48:07;;;;;;;;;;;19.40;67.30;;;;;;5092491;28;20371;-34
2023/05/21 08:50:33;;;;;;;;;;;19.50;67.10;;;;;;5092453;28;19908;-33
2023/05/21 08:53:00;;;;;;;;;;;19.50;67.00;;;;;;5092339;28;20358;-34
2023/05/21 08:55:26;;;;;;;;;;;19.60;67.00;;;;;;5092272;28;19915;-31
2023/05/21 08:57:52;;;;;;;;;;;19.70;66.80;;;;;;5092369;28;19915;-37
2023/05/21 09:00:19;;;;;;;;;;;19.70;66.60;;;;;;5092367;28;19953;-33
2023/05/21 09:02:45;;;;;;;;;;;19.80;66.60;;;;;;5092208;28;19912;-38
2023/05/21 09:05:11;;;;;;;;;;;19.90;66.30;;;;;;5092121;28;19908;-30
2023/05/21 09:07:38;;;;;;;;;;;19.90;66.20;;;;;;5092016;28;19952;-36
2023/05/21 09:10:07;;;;;;;;;;;20.00;65.90;;;;;;5092002;28;19908;-34
2023/05/21 09:12:33;;;;;;;;;;;20.00;65.50;;;;;;5091904;28;19912;-31
2023/05/21 09:15:00;;;;;;;;;;;20.00;65.70;;;;;;5092063;28;20011;-34
2023/05/21 09:17:25;;;;;;;;;;;20.00;65.70;;;;;;5091928;28;19908;-31
2023/05/21 09:20:08;;;;;;;;;;;20.10;65.80;;;;;;5091935;28;19953;-38
2023/05/21 09:22:34;;;;;;;;;;;20.20;65.60;;;;;;5091720;28;19920;-32
2023/05/21 09:25:02;;;;;;;;;;;20.30;65.60;;;;;;5092337;28;19912;-33
2023/05/21 09:27:28;;;;;;;;;;;20.40;65.70;;;;;;5091826;28;19957;-37
2023/05/21 09:29:53;;;;;;;;;;;20.40;65.10;;;;;;5091381;28;20396;-32
2023/05/21 09:32:19;;;;;;;;;;;20.40;65.00;;;;;;5091847;28;19919;-38
2023/05/21 09:34:46;;;;;;;;;;;20.40;64.90;;;;;;5092196;28;19914;-32
2023/05/21 09:37:12;;;;;;;;;;;20.50;64.90;;;;;;5091716;28;19908;-35
2023/05/21 09:39:38;;;;;;;;;;;20.60;64.90;;;;;;5091621;28;20353;-30
2023/05/21 09:42:04;;;;;;;;;;;20.70;64.50;;;;;;5091713;28;19908;-35
2023/05/21 09:44:30;;;;;;;;;;;20.80;64.40;;;;;;5091632;28;20003;-34
2023/05/21 09:46:59;;;;;;;;;;;20.80;64.30;;;;;;5091698;28;19917;-34
2023/05/21 09:49:26;;;;;;;;;;;20.90;64.20;;;;;;5091618;28;20394;-34
2023/05/21 09:51:55;;;;;;;;;;;20.90;64.00;;;;;;5091424;28;20462;-36
2023/05/21 09:54:21;;;;;;;;;;;21.00;64.00;;;;;;5091543;28;20287;-36
2023/05/21 09:56:47;;;;;;;;;;;21.00;63.90;;;;;;5091598;28;19912;-30
2023/05/21 09:59:12;;;;;;;;;;;21.10;63.80;;;;;;5091432;28;20348;-32
2023/05/21 10:01:38;;;;;;;;;;;21.20;63.80;;;;;;5091524;28;19957;-38
2023/05/21 10:04:06;;;;;;;;;;;21.20;63.40;;;;;;5073661;28;20344;-29
2023/05/21 10:06:33;;;;;;;;;;;21.30;63.50;;;;;;5091865;28;20374;-32
2023/05/21 10:09:00;;;;;;;;;;;21.30;63.40;;;;;;5091385;28;19963;-34
2023/05/21 10:11:28;;;;;;;;;;;21.30;63.40;;;;;;5091367;28;19909;-32
2023/05/21 10:13:56;;;;;;;;;;;21.30;63.20;;;;;;5091145;28;19908;-31
2023/05/21 10:16:22;;;;;;;;;;;21.20;63.20;;;;;;5091290;28;19908;-32
2023/05/21 10:18:48;;;;;;;;;;;21.10;63.40;;;;;;5091350;28;19915;-35
2023/05/21 10:21:14;;;;;;;;;;;21.20;63.50;;;;;;5091191;28;20324;-36
2023/05/21 10:23:40;;;;;;;;;;;21.30;63.70;;;;;;5091332;28;19934;-38
2023/05/21 10:26:07;;;;;;;;;;;21.40;63.40;;;;;;5091271;28;20037;-37
2023/05/21 10:28:32;;;;;;;;;;;21.50;63.20;;;;;;5073055;28;19908;-34
2023/05/21 10:30:58;;;;;;;;;;;21.60;63.00;;;;;;5091348;28;19908;-34
2023/05/21 10:33:24;;;;;;;;;;;21.80;62.60;;;;;;5091162;28;19915;-33
2023/05/21 10:35:50;;;;;;;;;;;22.00;62.60;;;;;;5091224;28;20029;-37
2023/05/21 10:38:17;;;;;;;;;;;22.00;62.00;;;;;;5091275;28;19908;-34
2023/05/21 10:40:42;;;;;;;;;;;22.00;61.70;;;;;;5091226;28;19951;-35
2023/05/21 10:43:23;;;;;;;;;;;22.00;61.90;;;;;;5094405;28;20370;-35
2023/05/21 10:45:56;;;;;;;;;;;22.00;62.00;;;;;;5076854;28;19971;-32
2023/05/21 10:48:22;;;;;;;;;;;22.10;62.00;;;;;;5094736;28;19908;-37
2023/05/21 10:51:06;;;;;;;;;;;22.10;61.80;;;;;;5094693;28;19915;-43
2023/05/21 10:53:32;;;;;;;;;;;22.10;61.60;;;;;;5094546;28;19912;-38
2023/05/21 10:56:10;;;;;;;;;;;22.00;61.40;;;;;;5094582;28;20250;-42
2023/05/21 10:58:44;;;;;;;;;;;22.00;61.50;;;;;;5094638;28;19995;-37
2023/05/21 11:01:11;;;;;;;;;;;21.90;61.90;;;;;;5094666;28;19912;-33
2023/05/21 11:03:36;;;;;;;;;;;21.90;62.10;;;;;;5094914;28;19912;-35
2023/05/21 11:06:02;;;;;;;;;;;22.00;62.00;;;;;;5094659;28;19986;-39
2023/05/21 11:08:34;;;;;;;;;;;22.10;61.90;;;;;;5094464;28;19940;-38
2023/05/21 11:11:01;;;;;;;;;;;22.10;61.60;;;;;;5094724;28;19965;-37
2023/05/21 11:13:27;;;;;;;;;;;22.20;61.80;;;;;;5094599;28;19908;-35
2023/05/21 11:15:58;;;;;;;;;;;22.30;61.50;;;;;;5094511;28;19912;-31
2023/05/21 11:18:36;;;;;;;;;;;22.40;61.00;;;;;;5094355;28;19920;-32
2023/05/21 11:21:02;;;;;;;;;;;22.50;61.20;;;;;;5075718;28;19927;-36
2023/05/21 11:23:47;;;;;;;;;;;22.50;61.20;;;;;;5094118;28;19912;-36
2023/05/21 11:26:14;;;;;;;;;;;22.60;61.10;;;;;;5094665;28;19908;-33
2023/05/21 11:28:40;;;;;;;;;;;22.70;60.70;;;;;;5094163;28;20003;-35
2023/05/21 11:31:24;;;;;;;;;;;22.70;60.80;;;;;;5094162;28;19943;-32
2023/05/21 11:34:08;;;;;;;;;;;22.80;60.80;;;;;;5094093;28;20328;-38
2023/05/21 11:36:36;;;;;;;;;;;22.90;60.90;;;;;;5094374;28;19950;-34
2023/05/21 11:39:14;;;;;;;;;;;23.00;60.50;;;;;;5094016;28;19908;-32
2023/05/21 11:41:58;;;;;;;;;;;23.00;60.00;;;;;;5093970;28;19965;-34
2023/05/21 11:44:39;;;;;;;;;;;23.00;60.20;;;;;;5093872;28;19969;-32
2023/05/21 11:47:06;;;;;;;;;;;23.10;60.20;;;;;;5093800;28;19931;-34
2023/05/21 11:49:31;;;;;;;;;;;23.10;60.10;;;;;;5093660;28;19951;-33
2023/05/21 11:51:58;;;;;;;;;;;23.20;60.10;;;;;;5093545;28;19946;-36
2023/05/21 11:54:24;;;;;;;;;;;23.30;59.90;;;;;;5093706;28;19912;-36
2023/05/21 11:56:50;;;;;;;;;;;23.30;59.80;;;;;;5093816;28;19996;-38
2023/05/21 11:59:16;;;;;;;;;;;23.30;59.70;;;;;;5093941;28;19951;-38
2023/05/21 12:01:42;;;;;;;;;;;23.40;59.70;;;;;;5093501;28;19931;-34
2023/05/21 12:04:08;;;;;;;;;;;23.50;59.30;;;;;;5093389;28;20007;-33
2023/05/21 12:06:33;;;;;;;;;;;23.40;59.30;;;;;;5093435;28;19947;-35
2023/05/21 12:08:59;;;;;;;;;;;23.50;59.30;;;;;;5093359;28;20364;-37
2023/05/21 12:11:26;;;;;;;;;;;23.60;59.50;;;;;;5093477;28;19908;-34
2023/05/21 12:13:51;;;;;;;;;;;23.70;59.10;;;;;;5093516;28;19908;-37
2023/05/21 12:16:17;;;;;;;;;;;23.70;59.10;;;;;;5093548;28;19931;-40
2023/05/21 12:18:42;;;;;;;;;;;23.80;59.10;;;;;;5093179;28;19998;-35
2023/05/21 12:21:08;;;;;;;;;;;23.90;59.00;;;;;;5092828;28;19920;-36
2023/05/21 12:23:33;;;;;;;;;;;23.90;58.60;;;;;;5092960;28;19947;-35
2023/05/21 12:25:59;;;;;;;;;;;23.90;58.50;;;;;;5092998;28;19912;-34
2023/05/21 12:28:24;;;;;;;;;;;23.80;58.40;;;;;;5092917;28;19908;-38
2023/05/21 12:30:50;;;;;;;;;;;23.90;58.80;;;;;;5074687;28;19966;-37
2023/05/21 12:33:17;;;;;;;;;;;24.00;58.70;;;;;;5092526;28;19908;-34
2023/05/21 12:35:48;;;;;;;;;;;24.00;58.10;;;;;;5093090;28;19941;-35
2023/05/21 12:38:14;;;;;;;;;;;24.10;58.30;;;;;;5092670;28;19908;-32
2023/05/21 12:40:41;;;;;;;;;;;24.10;58.30;;;;;;5092787;28;19916;-37
2023/05/21 12:43:07;;;;;;;;;;;24.20;58.40;;;;;;5092653;28;19952;-32
2023/05/21 12:45:32;;;;;;;;;;;24.30;58.30;;;;;;5092676;28;20355;-38
2023/05/21 12:48:01;;;;;;;;;;;24.30;58.10;;;;;;5074593;28;19908;-33
2023/05/21 12:50:27;;;;;;;;;;;24.40;58.00;;;;;;5092600;28;19908;-32
2023/05/21 12:52:53;;;;;;;;;;;24.50;57.90;;;;;;5092663;28;19908;-36
2023/05/21 12:55:20;;;;;;;;;;;24.60;57.50;;;;;;5074203;28;19912;-36
2023/05/21 12:57:46;;;;;;;;;;;24.70;57.50;;;;;;5092574;28;19915;-35
2023/05/21 13:00:13;;;;;;;;;;;24.80;57.30;;;;;;5092507;28;19908;-35
2023/05/21 13:02:41;;;;;;;;;;;24.80;56.90;;;;;;5092340;28;19964;-32
2023/05/21 13:05:08;;;;;;;;;;;24.80;57.00;;;;;;5091830;28;19912;-35
2023/05/21 13:07:34;;;;;;;;;;;24.90;57.00;;;;;;5092579;28;19916;-35
2023/05/21 13:10:00;;;;;;;;;;;24.90;56.40;;;;;;5092188;28;20391;-35
2023/05/21 13:12:26;;;;;;;;;;;24.90;56.70;;;;;;5092151;28;19915;-34
2023/05/21 13:14:53;;;;;;;;;;;25.00;56.60;;;;;;5092317;28;19916;-31
2023/05/21 13:17:19;;;;;;;;;;;25.00;56.30;;;;;;5092353;28;20017;-37
2023/05/21 13:20:07;;;;;;;;;;;25.10;56.30;;;;;;5092159;28;19923;-32
2023/05/21 13:22:43;;;;;;;;;;;25.20;56.30;;;;;;5092031;28;19924;-30
2023/05/21 13:25:14;;;;;;;;;;;25.40;56.20;;;;;;5091345;28;21362;-30
2023/05/21 13:27:40;;;;;;;;;;;25.50;56.00;;;;;;5092210;28;19919;-31
2023/05/21 13:30:06;;;;;;;;;;;25.60;55.90;;;;;;5092043;28;19912;-31
2023/05/21 13:32:31;;;;;;;;;;;25.80;55.80;;;;;;5091917;28;19966;-33
2023/05/21 13:34:57;;;;;;;;;;;25.80;55.40;;;;;;5092137;28;19915;-31
2023/05/21 13:37:22;;;;;;;;;;;25.90;55.40;;;;;;5091868;28;20421;-32
2023/05/21 13:39:48;;;;;;;;;;;26.10;55.40;;;;;;5092101;28;19909;-35
2023/05/21 13:42:14;;;;;;;;;;;26.10;55.30;;;;;;5091709;28;19916;-29
2023/05/21 13:44:39;;;;;;;;;;;26.10;54.90;;;;;;5073861;28;20316;-37
2023/05/21 13:47:05;;;;;;;;;;;26.00;54.80;;;;;;5091880;28;19915;-31
2023/05/21 13:49:31;;;;;;;;;;;25.80;54.70;;;;;;5091824;28;20013;-30
2023/05/21 13:51:58;;;;;;;;;;;25.80;54.90;;;;;;5091790;28;19908;-29
2023/05/21 13:54:24;;;;;;;;;;;25.80;55.00;;;;;;5091698;28;20279;-31
2023/05/21 13:56:49;;;;;;;;;;;25.80;55.00;;;;;;5091784;28;19939;-32
2023/05/21 13:59:15;;;;;;;;;;;25.90;55.10;;;;;;5091695;28;19947;-34
2023/05/21 14:01:40;;;;;;;;;;;26.00;54.80;;;;;;5092139;28;19916;-35
2023/05/21 14:04:07;;;;;;;;;;;26.00;54.90;;;;;;5091474;28;19919;-33
2023/05/21 14:06:33;;;;;;;;;;;26.10;54.50;;;;;;5091464;28;20363;-34
2023/05/21 14:08:59;;;;;;;;;;;26.10;54.00;;;;;;5091440;28;19952;-34
2023/05/21 14:11:25;;;;;;;;;;;26.10;54.30;;;;;;5091581;28;19920;-35
2023/05/21 14:13:51;;;;;;;;;;;26.10;54.50;;;;;;5091651;28;19908;-34